Time;durP1;ratioP1;P1;durP2;ratioP2;P2;SDS_P1;SDS_P2;PMS_P1;PMS_P2;Temp;Humidity;BMP_temperature;BMP_pressure;BME280_temperature;BME280_humidity;BME280_pressure;Samples;Min_cycle;Max_cycle;Signal;HPM_P1;HPM_P2
2023/08/03 00:01:27;;;;;;;5.10;0.80;;;16.10;99.90;;;;;;4998989;28;20132;-83
2023/08/03 00:03:53;;;;;;;2.20;0.60;;;16.10;99.90;;;;;;5015858;28;20025;-82
2023/08/03 00:06:19;;;;;;;3.00;0.77;;;16.10;99.90;;;;;;5033160;28;20363;-84
2023/08/03 00:08:44;;;;;;;2.58;0.70;;;16.10;99.90;;;;;;5036337;28;20033;-83
2023/08/03 00:11:11;;;;;;;4.90;0.70;;;16.10;99.90;;;;;;5018731;28;20136;-84
2023/08/03 00:13:37;;;;;;;5.03;0.85;;;16.10;99.90;;;;;;5018928;28;20017;-84
2023/08/03 00:16:03;;;;;;;3.45;0.75;;;16.10;99.90;;;;;;5018903;28;20190;-83
2023/08/03 00:18:28;;;;;;;4.70;1.02;;;16.20;99.90;;;;;;5036467;28;20029;-83
2023/08/03 00:20:54;;;;;;;3.95;0.90;;;16.20;99.90;;;;;;5036457;28;20035;-84
2023/08/03 00:23:19;;;;;;;5.28;1.00;;;16.20;99.90;;;;;;5018889;28;20029;-83
2023/08/03 00:25:45;;;;;;;2.88;0.70;;;16.20;99.90;;;;;;5036431;28;20092;-84
2023/08/03 00:28:11;;;;;;;4.10;0.90;;;16.20;99.90;;;;;;5018212;28;20037;-84
2023/08/03 00:30:36;;;;;;;5.00;1.08;;;16.20;99.90;;;;;;5002561;28;20080;-84
2023/08/03 00:33:02;;;;;;;3.70;0.90;;;16.20;99.90;;;;;;5036739;28;20473;-84
2023/08/03 00:35:27;;;;;;;2.33;0.90;;;16.20;99.90;;;;;;5018324;28;20041;-84
2023/08/03 00:37:53;;;;;;;6.35;1.50;;;16.20;99.90;;;;;;5018265;28;20105;-84
2023/08/03 00:40:19;;;;;;;3.15;0.80;;;16.20;99.90;;;;;;5036138;28;20048;-84
2023/08/03 00:42:45;;;;;;;4.05;1.13;;;16.20;99.90;;;;;;5001985;28;20029;-84
2023/08/03 00:45:11;;;;;;;3.08;1.20;;;16.30;99.90;;;;;;5002076;28;20565;-83
2023/08/03 00:47:38;;;;;;;3.85;1.33;;;16.20;99.90;;;;;;5036027;28;20473;-83
2023/08/03 00:50:05;;;;;;;5.88;1.70;;;16.30;99.90;;;;;;5018476;28;20033;-83
2023/08/03 00:52:33;;;;;;;4.80;1.58;;;16.30;99.90;;;;;;5018109;28;20017;-83
2023/08/03 00:54:59;;;;;;;6.20;2.25;;;16.30;99.90;;;;;;5018350;28;20033;-83
2023/08/03 00:57:24;;;;;;;4.63;2.28;;;16.30;99.90;;;;;;5018698;28;20102;-84
2023/08/03 00:59:50;;;;;;;7.90;2.58;;;16.30;99.90;;;;;;5035588;28;20030;-84
2023/08/03 01:02:16;;;;;;;10.80;2.55;;;16.30;99.90;;;;;;5002083;28;20029;-82
2023/08/03 01:04:41;;;;;;;10.73;3.75;;;16.30;99.90;;;;;;5001588;28;20033;-83
2023/08/03 01:07:07;;;;;;;5.93;3.55;;;16.30;99.90;;;;;;5018281;28;20037;-83
2023/08/03 01:09:33;;;;;;;7.32;3.95;;;16.30;99.90;;;;;;5017979;28;20049;-84
2023/08/03 01:11:58;;;;;;;9.75;4.65;;;16.30;99.90;;;;;;5017780;28;20033;-83
2023/08/03 01:14:24;;;;;;;11.77;5.47;;;16.30;99.90;;;;;;5018188;28;20362;-83
2023/08/03 01:16:50;;;;;;;14.82;4.90;;;16.30;99.90;;;;;;5018290;28;20087;-84
2023/08/03 01:19:16;;;;;;;13.80;5.57;;;16.30;99.90;;;;;;5017695;28;20026;-84
2023/08/03 01:21:43;;;;;;;10.27;4.90;;;16.30;99.90;;;;;;5001667;28;20036;-83
2023/08/03 01:24:10;;;;;;;10.13;4.38;;;16.30;99.90;;;;;;5017820;28;20415;-85
2023/08/03 01:26:36;;;;;;;6.10;2.58;;;16.30;99.90;;;;;;5017845;28;20030;-84
2023/08/03 01:29:01;;;;;;;9.38;2.33;;;16.30;99.90;;;;;;5017823;28;20120;-83
2023/08/03 01:31:27;;;;;;;4.38;1.67;;;16.20;99.90;;;;;;5001134;28;20117;-83
2023/08/03 01:33:53;;;;;;;7.85;1.95;;;16.20;99.90;;;;;;5035306;28;20458;-82
2023/08/03 01:36:18;;;;;;;3.53;1.50;;;16.10;99.90;;;;;;5017244;28;20049;-83
2023/08/03 01:38:44;;;;;;;3.92;1.60;;;16.10;99.90;;;;;;5001200;28;20029;-83
2023/08/03 01:41:10;;;;;;;8.93;1.95;;;16.10;99.90;;;;;;5001157;28;20087;-83
2023/08/03 01:43:35;;;;;;;9.40;2.92;;;16.20;99.90;;;;;;5001150;28;20080;-83
2023/08/03 01:46:01;;;;;;;7.38;3.17;;;16.10;99.90;;;;;;5017009;28;20119;-83
2023/08/03 01:48:26;;;;;;;9.65;3.38;;;16.20;99.90;;;;;;5017545;28;20030;-83
2023/08/03 01:50:52;;;;;;;12.10;4.35;;;16.20;99.90;;;;;;5017354;28;20033;-84
2023/08/03 01:53:18;;;;;;;9.13;4.63;;;16.30;99.90;;;;;;5017151;28;20033;-84
2023/08/03 01:55:46;;;;;;;9.32;4.10;;;16.30;99.90;;;;;;5017434;28;20037;-83
2023/08/03 01:58:13;;;;;;;13.00;5.03;;;16.40;99.90;;;;;;5034475;28;20465;-84
2023/08/03 02:00:39;;;;;;;13.13;6.18;;;16.40;99.90;;;;;;4984969;28;20057;-83
2023/08/03 02:03:04;;;;;;;10.23;5.40;;;16.40;99.90;;;;;;4984197;28;20415;-83
2023/08/03 02:05:30;;;;;;;11.18;4.47;;;16.40;99.90;;;;;;5016587;28;20064;-82
2023/08/03 02:07:55;;;;;;;16.38;5.93;;;16.50;99.90;;;;;;5016723;28;20109;-82
2023/08/03 02:10:24;;;;;;;12.77;5.47;;;16.50;99.90;;;;;;5016852;28;20130;-83
2023/08/03 02:12:50;;;;;;;13.57;4.20;;;16.50;99.90;;;;;;5016756;28;20060;-82
2023/08/03 02:15:16;;;;;;;12.60;4.70;;;16.50;99.90;;;;;;5016891;28;20112;-82
2023/08/03 02:17:43;;;;;;;13.70;5.00;;;16.60;99.90;;;;;;5034554;28;20124;-82
2023/08/03 02:20:10;;;;;;;14.50;4.95;;;16.50;99.90;;;;;;5000451;28;20095;-82
2023/08/03 02:22:36;;;;;;;9.38;4.60;;;16.60;99.90;;;;;;5034556;28;20034;-82
2023/08/03 02:25:02;;;;;;;8.43;4.30;;;16.60;99.90;;;;;;5034253;28;20385;-82
2023/08/03 02:27:28;;;;;;;13.45;5.15;;;16.60;99.90;;;;;;5034153;28;20492;-82
2023/08/03 02:29:53;;;;;;;13.50;5.35;;;16.60;99.90;;;;;;5015771;28;20069;-82
2023/08/03 02:32:24;;;;;;;12.25;5.88;;;16.60;99.90;;;;;;4999836;28;20108;-82
2023/08/03 02:34:50;;;;;;;13.10;6.00;;;16.60;99.90;;;;;;5001369;28;20476;-82
2023/08/03 02:37:15;;;;;;;13.45;6.90;;;16.60;99.90;;;;;;4999592;28;20045;-83
2023/08/03 02:39:41;;;;;;;11.65;5.68;;;16.60;99.90;;;;;;5015574;28;20079;-84
2023/08/03 02:42:07;;;;;;;13.57;6.28;;;16.60;99.90;;;;;;5016158;28;20036;-82
2023/08/03 02:44:32;;;;;;;13.15;5.20;;;16.60;99.90;;;;;;5033699;28;20104;-82
2023/08/03 02:46:58;;;;;;;10.98;5.43;;;16.60;99.90;;;;;;5034030;28;20120;-83
2023/08/03 02:49:23;;;;;;;17.00;5.65;;;16.60;99.90;;;;;;5034067;28;21385;-82
2023/08/03 02:51:49;;;;;;;15.75;5.68;;;16.60;99.90;;;;;;5015805;28;20037;-83
2023/08/03 02:54:15;;;;;;;14.02;5.68;;;16.60;99.90;;;;;;4999586;28;20032;-83
2023/08/03 02:56:40;;;;;;;15.07;5.40;;;16.60;99.90;;;;;;4999328;28;20391;-83
2023/08/03 02:59:06;;;;;;;14.60;5.45;;;16.60;99.90;;;;;;5015972;28;20053;-83
2023/08/03 03:01:31;;;;;;;16.75;4.63;;;16.60;99.90;;;;;;4999279;28;20500;-83
2023/08/03 03:03:57;;;;;;;11.45;5.20;;;16.70;99.90;;;;;;5015699;28;20175;-82
2023/08/03 03:06:23;;;;;;;14.07;5.80;;;16.60;99.90;;;;;;4999300;28;20072;-84
2023/08/03 03:08:48;;;;;;;13.05;6.05;;;16.70;99.90;;;;;;5015761;28;20037;-83
2023/08/03 03:11:14;;;;;;;15.75;6.43;;;16.60;99.90;;;;;;5015632;28;20409;-83
2023/08/03 03:13:39;;;;;;;17.35;7.70;;;16.60;99.90;;;;;;4999322;28;20033;-84
2023/08/03 03:16:05;;;;;;;12.85;6.45;;;16.60;99.90;;;;;;4999080;28;20192;-82
2023/08/03 03:18:30;;;;;;;10.93;5.57;;;16.60;99.90;;;;;;5015505;28;20034;-83
2023/08/03 03:20:56;;;;;;;14.73;5.55;;;16.60;99.90;;;;;;4982961;28;20508;-84
2023/08/03 03:23:22;;;;;;;15.45;5.90;;;16.60;99.90;;;;;;4982742;28;20022;-83
2023/08/03 03:25:47;;;;;;;8.77;3.85;;;16.60;99.90;;;;;;5015565;28;20108;-84
2023/08/03 03:28:13;;;;;;;8.05;4.53;;;16.60;99.90;;;;;;4999394;28;20489;-84
2023/08/03 03:30:38;;;;;;;5.68;3.90;;;16.60;99.90;;;;;;4999400;28;20490;-83
2023/08/03 03:33:04;;;;;;;6.60;3.13;;;16.60;99.90;;;;;;5015442;28;20034;-84
2023/08/03 03:35:30;;;;;;;5.45;3.67;;;16.60;99.90;;;;;;5015664;28;20117;-84
2023/08/03 03:37:56;;;;;;;7.35;3.70;;;16.60;99.90;;;;;;5015861;28;20108;-85
2023/08/03 03:40:22;;;;;;;6.60;3.42;;;16.60;99.90;;;;;;5015615;28;20512;-84
2023/08/03 03:42:47;;;;;;;7.45;3.78;;;16.60;99.90;;;;;;5016293;28;20032;-84
2023/08/03 03:45:13;;;;;;;8.05;4.30;;;16.60;99.90;;;;;;4999136;28;20053;-84
2023/08/03 03:47:38;;;;;;;6.45;3.97;;;16.60;99.90;;;;;;5032752;28;20037;-84
2023/08/03 03:50:04;;;;;;;7.30;3.92;;;16.60;99.90;;;;;;4999208;28;20030;-85
2023/08/03 03:52:30;;;;;;;7.63;4.50;;;16.40;99.90;;;;;;5014857;28;20025;-84
2023/08/03 03:54:56;;;;;;;7.15;4.63;;;16.50;99.90;;;;;;5015096;28;20036;-85
2023/08/03 03:57:21;;;;;;;7.75;4.97;;;16.50;99.90;;;;;;5032257;28;20045;-83
2023/08/03 03:59:47;;;;;;;8.80;6.18;;;16.50;99.90;;;;;;5015024;28;20037;-83
2023/08/03 04:02:12;;;;;;;9.63;6.45;;;16.60;99.90;;;;;;5033826;28;20081;-83
2023/08/03 04:04:38;;;;;;;9.85;5.63;;;16.50;99.90;;;;;;5017234;28;20025;-83
2023/08/03 04:07:04;;;;;;;6.30;3.92;;;16.50;99.90;;;;;;5017447;28;20124;-83
2023/08/03 04:09:29;;;;;;;7.60;4.00;;;16.50;99.90;;;;;;5019261;28;20032;-84
2023/08/03 04:11:55;;;;;;;11.43;4.82;;;16.40;99.90;;;;;;5039367;28;20141;-83
2023/08/03 04:14:21;;;;;;;10.18;4.30;;;16.40;99.90;;;;;;5021267;28;20061;-84
2023/08/03 04:16:46;;;;;;;9.20;4.68;;;16.40;99.90;;;;;;5020556;28;20122;-83
2023/08/03 04:19:12;;;;;;;13.85;4.68;;;16.40;99.90;;;;;;5020133;28;20056;-83
2023/08/03 04:21:38;;;;;;;12.30;4.57;;;16.40;99.90;;;;;;5037715;28;20025;-82
2023/08/03 04:24:03;;;;;;;11.00;5.47;;;16.40;99.90;;;;;;5037861;28;20061;-83
2023/08/03 04:26:29;;;;;;;16.60;6.57;;;16.40;99.90;;;;;;5003743;28;20382;-82
2023/08/03 04:28:55;;;;;;;12.95;6.93;;;16.40;99.90;;;;;;5019876;28;20116;-83
2023/08/03 04:31:20;;;;;;;16.50;7.82;;;16.40;99.90;;;;;;5002823;28;20503;-83
2023/08/03 04:33:46;;;;;;;11.65;6.97;;;16.40;99.90;;;;;;5002757;28;20040;-82
2023/08/03 04:36:12;;;;;;;11.60;7.22;;;16.40;99.90;;;;;;5002243;28;20048;-82
2023/08/03 04:38:37;;;;;;;12.55;7.25;;;16.40;99.90;;;;;;5001651;28;20026;-83
2023/08/03 04:41:03;;;;;;;13.35;5.85;;;16.40;99.90;;;;;;5000110;28;20026;-82
2023/08/03 04:43:29;;;;;;;10.73;5.28;;;16.40;99.90;;;;;;4982527;28;20120;-82
2023/08/03 04:45:54;;;;;;;10.85;5.07;;;16.40;99.90;;;;;;5014838;28;20481;-81
2023/08/03 04:48:20;;;;;;;12.55;5.18;;;16.40;99.90;;;;;;5014482;28;20079;-82
2023/08/03 04:50:46;;;;;;;9.07;4.15;;;16.40;99.90;;;;;;5014678;28;20354;-82
2023/08/03 04:53:11;;;;;;;12.85;4.18;;;16.40;99.90;;;;;;5015262;28;20036;-82
2023/08/03 04:55:37;;;;;;;10.90;3.60;;;16.40;99.90;;;;;;5018429;28;20116;-82
2023/08/03 04:58:03;;;;;;;16.85;3.75;;;16.30;99.90;;;;;;5002651;28;20033;-83
2023/08/03 05:00:28;;;;;;;12.18;3.42;;;16.30;99.90;;;;;;5018269;28;20041;-80
2023/08/03 05:02:54;;;;;;;13.20;3.30;;;16.30;99.90;;;;;;5001590;28;20083;-81
2023/08/03 05:05:19;;;;;;;10.07;2.70;;;16.30;99.90;;;;;;5000718;28;20034;-80
2023/08/03 05:07:45;;;;;;;14.05;3.25;;;16.30;99.90;;;;;;5001379;28;20105;-81
2023/08/03 05:10:11;;;;;;;10.82;3.35;;;16.30;99.90;;;;;;5017612;28;20124;-81
2023/08/03 05:12:39;;;;;;;12.35;3.05;;;16.30;99.90;;;;;;5017540;28;20462;-81
2023/08/03 05:15:05;;;;;;;13.82;2.58;;;16.30;99.90;;;;;;5001698;28;20083;-80
2023/08/03 05:17:31;;;;;;;14.10;3.30;;;16.30;99.90;;;;;;5000625;28;20073;-81
2023/08/03 05:19:56;;;;;;;14.35;3.15;;;16.30;99.90;;;;;;5017931;28;20065;-80
2023/08/03 05:22:22;;;;;;;11.00;2.70;;;16.30;99.90;;;;;;5034339;28;20026;-81
2023/08/03 05:24:48;;;;;;;11.30;2.90;;;16.30;99.90;;;;;;5001644;28;20057;-81
2023/08/03 05:27:13;;;;;;;10.50;2.58;;;16.30;99.90;;;;;;5035269;28;20509;-83
2023/08/03 05:29:43;;;;;;;13.05;2.58;;;16.30;99.90;;;;;;5017825;28;20064;-84
2023/08/03 05:32:08;;;;;;;8.70;2.05;;;16.30;99.90;;;;;;5017424;28;20040;-83
2023/08/03 05:34:34;;;;;;;11.13;1.88;;;16.40;99.90;;;;;;5017294;28;20386;-83
2023/08/03 05:36:59;;;;;;;13.65;2.70;;;16.30;99.90;;;;;;5000803;28;20423;-82
2023/08/03 05:39:26;;;;;;;6.10;2.35;;;16.30;99.90;;;;;;5035492;28;20427;-83
2023/08/03 05:41:52;;;;;;;8.90;2.95;;;16.30;99.90;;;;;;5017171;28;20025;-83
2023/08/03 05:44:18;;;;;;;9.60;3.25;;;16.40;99.90;;;;;;5001274;28;20029;-82
2023/08/03 05:46:44;;;;;;;11.75;2.75;;;16.30;99.90;;;;;;5017629;28;20040;-84
2023/08/03 05:49:11;;;;;;;10.73;2.22;;;16.40;99.90;;;;;;5017129;28;20056;-84
2023/08/03 05:51:39;;;;;;;9.02;2.42;;;16.40;99.90;;;;;;5001673;28;20063;-84
2023/08/03 05:54:05;;;;;;;13.18;2.70;;;16.30;99.90;;;;;;5017572;28;20490;-82
2023/08/03 05:56:34;;;;;;;11.23;2.58;;;16.30;99.90;;;;;;5017281;28;20099;-82
2023/08/03 05:59:02;;;;;;;13.30;2.90;;;16.40;99.90;;;;;;5034578;28;20386;-83
2023/08/03 06:01:28;;;;;;;12.48;3.45;;;16.30;99.90;;;;;;5011080;28;20543;-83
2023/08/03 06:03:54;;;;;;;13.60;3.33;;;16.30;99.90;;;;;;4998767;28;20046;-82
2023/08/03 06:06:21;;;;;;;11.27;3.00;;;16.40;99.90;;;;;;5006710;28;20584;-83
2023/08/03 06:08:53;;;;;;;11.15;2.60;;;16.40;99.90;;;;;;5002200;28;20029;-83
2023/08/03 06:11:20;;;;;;;18.65;3.90;;;16.40;99.90;;;;;;5004720;28;20486;-84
2023/08/03 06:13:47;;;;;;;14.35;3.30;;;16.40;99.90;;;;;;5002250;28;20036;-82
2023/08/03 06:16:14;;;;;;;16.52;3.60;;;16.40;99.90;;;;;;5001895;28;20505;-84
2023/08/03 06:18:52;;;;;;;14.50;3.17;;;16.40;99.90;;;;;;5019760;28;20058;-84
2023/08/03 06:21:18;;;;;;;11.82;3.05;;;16.40;99.90;;;;;;5006657;28;20025;-83
2023/08/03 06:23:48;;;;;;;12.65;3.50;;;16.40;99.90;;;;;;5022547;28;20474;-83
2023/08/03 06:26:16;;;;;;;15.85;3.45;;;16.30;99.90;;;;;;5006759;28;20022;-83
2023/08/03 06:28:43;;;;;;;15.68;3.35;;;16.30;99.90;;;;;;5004003;28;20177;-83
2023/08/03 06:31:22;;;;;;;10.80;2.85;;;16.30;99.90;;;;;;5014489;28;20026;-83
2023/08/03 06:33:48;;;;;;;15.00;3.38;;;16.40;99.90;;;;;;5014118;28;20034;-84
2023/08/03 06:36:19;;;;;;;11.40;2.65;;;16.30;99.90;;;;;;5014274;28;20041;-83
2023/08/03 06:38:46;;;;;;;15.52;2.53;;;16.30;99.90;;;;;;5014279;28;20038;-84
2023/08/03 06:41:12;;;;;;;15.57;3.25;;;16.40;99.90;;;;;;4996611;28;20030;-83
2023/08/03 06:43:38;;;;;;;14.20;3.08;;;16.40;99.90;;;;;;5014138;28;20430;-83
2023/08/03 06:46:04;;;;;;;16.40;3.70;;;16.40;99.90;;;;;;5014028;28;20123;-83
2023/08/03 06:48:31;;;;;;;14.38;3.10;;;16.40;99.90;;;;;;4980597;28;20508;-83
2023/08/03 06:50:57;;;;;;;11.85;3.30;;;16.40;99.90;;;;;;5014703;28;20029;-83
2023/08/03 06:53:22;;;;;;;14.13;3.10;;;16.40;99.90;;;;;;4980818;28;20033;-83
2023/08/03 06:55:48;;;;;;;12.63;3.10;;;16.40;99.90;;;;;;4996406;28;20433;-83
2023/08/03 06:58:17;;;;;;;10.27;3.22;;;16.40;99.90;;;;;;4964066;28;20129;-82
2023/08/03 07:00:47;;;;;;;14.20;3.55;;;16.50;99.90;;;;;;5014198;28;20049;-82
2023/08/03 07:03:13;;;;;;;7.63;2.58;;;16.50;99.90;;;;;;4996504;28;20117;-83
2023/08/03 07:05:40;;;;;;;12.73;3.00;;;16.50;99.90;;;;;;4996044;28;20030;-83
2023/08/03 07:08:05;;;;;;;13.43;2.92;;;16.50;99.90;;;;;;4963965;28;20022;-83
2023/08/03 07:10:32;;;;;;;10.25;2.28;;;16.50;99.90;;;;;;4992867;28;20054;-83
2023/08/03 07:12:57;;;;;;;15.05;3.33;;;16.50;99.90;;;;;;4978072;28;20034;-82
2023/08/03 07:15:23;;;;;;;15.65;3.60;;;16.50;99.90;;;;;;4995870;28;20026;-84
2023/08/03 07:17:49;;;;;;;11.70;2.35;;;16.50;99.90;;;;;;4995938;28;20398;-83
2023/08/03 07:20:14;;;;;;;9.23;2.40;;;16.50;99.90;;;;;;4980360;28;20479;-83
2023/08/03 07:22:40;;;;;;;9.55;2.00;;;16.50;99.90;;;;;;5013525;28;20044;-83
2023/08/03 07:25:06;;;;;;;13.95;2.45;;;16.50;99.90;;;;;;5012159;28;20042;-83
2023/08/03 07:27:32;;;;;;;9.43;2.33;;;16.50;99.90;;;;;;5012692;28;20081;-83
2023/08/03 07:29:58;;;;;;;10.30;1.80;;;16.50;99.90;;;;;;5012640;28;20018;-83
2023/08/03 07:32:24;;;;;;;10.63;2.00;;;16.50;99.90;;;;;;5013386;28;20363;-84
2023/08/03 07:34:50;;;;;;;11.52;2.42;;;16.60;99.90;;;;;;5014683;28;20540;-83
2023/08/03 07:37:16;;;;;;;9.80;2.13;;;16.70;99.90;;;;;;5016551;28;20375;-84
2023/08/03 07:39:42;;;;;;;9.45;2.38;;;16.70;99.90;;;;;;5002535;28;20104;-83
2023/08/03 07:42:07;;;;;;;11.38;2.30;;;16.70;99.90;;;;;;5015301;28;20033;-83
2023/08/03 07:44:33;;;;;;;9.45;2.22;;;16.70;99.90;;;;;;5005433;28;20531;-82
2023/08/03 07:46:59;;;;;;;8.48;2.35;;;16.70;99.90;;;;;;4980544;28;20104;-82
2023/08/03 07:49:25;;;;;;;9.82;3.50;;;16.70;99.90;;;;;;4996733;28;20030;-82
2023/08/03 07:51:50;;;;;;;10.77;2.30;;;16.80;99.90;;;;;;4995479;28;20448;-83
2023/08/03 07:54:16;;;;;;;9.60;2.13;;;16.80;99.90;;;;;;4980894;28;20054;-84
2023/08/03 07:56:42;;;;;;;11.57;2.42;;;16.80;99.90;;;;;;4980009;28;20348;-83
2023/08/03 07:59:10;;;;;;;11.15;1.98;;;16.80;99.90;;;;;;4996622;28;20026;-83
2023/08/03 08:01:36;;;;;;;8.25;2.28;;;16.80;99.90;;;;;;4995650;28;20037;-83
2023/08/03 08:04:02;;;;;;;8.95;2.40;;;16.80;99.90;;;;;;4981254;28;20022;-84
2023/08/03 08:06:28;;;;;;;9.88;2.30;;;16.90;99.90;;;;;;4995966;28;20030;-82
2023/08/03 08:08:54;;;;;;;9.65;2.55;;;16.90;99.90;;;;;;4978172;28;20044;-83
2023/08/03 08:11:20;;;;;;;8.93;3.00;;;16.90;99.90;;;;;;4992062;28;20138;-83
2023/08/03 08:13:46;;;;;;;10.52;2.60;;;17.00;99.90;;;;;;4993704;28;20035;-83
2023/08/03 08:16:14;;;;;;;10.02;2.83;;;16.90;99.90;;;;;;4995995;28;20467;-82
2023/08/03 08:18:40;;;;;;;8.25;2.67;;;16.90;99.90;;;;;;4979938;28;20034;-83
2023/08/03 08:21:08;;;;;;;9.40;2.25;;;16.90;99.90;;;;;;4985585;28;20034;-82
2023/08/03 08:23:34;;;;;;;10.88;2.83;;;16.90;99.90;;;;;;5002651;28;20478;-82
2023/08/03 08:26:02;;;;;;;12.00;3.30;;;16.90;99.90;;;;;;5006368;28;20497;-82
2023/08/03 08:28:28;;;;;;;12.63;3.53;;;16.90;99.90;;;;;;5003588;28;20030;-83
2023/08/03 08:30:54;;;;;;;11.60;4.20;;;16.90;99.90;;;;;;5004692;28;20112;-82
2023/08/03 08:33:20;;;;;;;13.20;3.90;;;16.90;99.90;;;;;;4973207;28;20161;-83
2023/08/03 08:35:49;;;;;;;11.43;3.08;;;16.90;99.90;;;;;;4987760;28;20510;-83
2023/08/03 08:38:17;;;;;;;11.00;3.20;;;16.90;99.90;;;;;;5004846;28;20030;-82
2023/08/03 08:40:47;;;;;;;10.25;3.20;;;16.90;99.90;;;;;;5005793;28;20142;-83
2023/08/03 08:43:13;;;;;;;11.60;3.05;;;16.90;99.90;;;;;;4995697;28;20033;-82
2023/08/03 08:45:39;;;;;;;10.15;3.40;;;17.00;99.90;;;;;;4996476;28;20378;-83
2023/08/03 08:48:05;;;;;;;19.50;4.57;;;17.00;99.90;;;;;;4994922;28;20031;-82
2023/08/03 08:50:32;;;;;;;9.45;4.10;;;17.00;99.90;;;;;;4979131;28;20386;-83
2023/08/03 08:52:58;;;;;;;7.45;3.95;;;17.10;99.90;;;;;;4996740;28;20374;-82
2023/08/03 08:55:31;;;;;;;13.80;3.80;;;17.20;99.90;;;;;;4997117;28;20074;-82
2023/08/03 08:57:57;;;;;;;11.05;3.92;;;17.40;99.90;;;;;;4997087;28;20030;-83
2023/08/03 09:00:25;;;;;;;11.10;3.95;;;17.50;99.90;;;;;;4979515;28;20097;-82
2023/08/03 09:03:00;;;;;;;11.35;3.17;;;17.70;99.90;;;;;;4979034;28;20086;-84
2023/08/03 09:05:26;;;;;;;11.27;2.95;;;17.90;99.90;;;;;;4984373;28;20117;-83
2023/08/03 09:08:01;;;;;;;9.90;3.28;;;18.00;99.90;;;;;;5013323;28;20477;-81
2023/08/03 09:10:27;;;;;;;8.75;3.50;;;18.00;99.90;;;;;;5023776;28;20109;-82
2023/08/03 09:12:52;;;;;;;10.70;3.28;;;17.90;99.90;;;;;;5011110;28;20050;-82
2023/08/03 09:15:35;;;;;;;7.80;3.30;;;17.80;99.90;;;;;;5027924;28;20105;-82
2023/08/03 09:18:05;;;;;;;10.60;4.13;;;17.80;99.90;;;;;;5014576;28;20033;-82
2023/08/03 09:20:31;;;;;;;14.82;5.38;;;17.80;99.90;;;;;;5008008;28;20037;-82
2023/08/03 09:22:58;;;;;;;12.57;5.47;;;17.90;99.90;;;;;;5008498;28;20080;-81
2023/08/03 09:25:23;;;;;;;11.60;5.70;;;18.00;99.90;;;;;;5006467;28;20113;-82
2023/08/03 09:27:54;;;;;;;14.02;6.43;;;18.20;99.90;;;;;;5008942;28;20122;-80
2023/08/03 09:30:25;;;;;;;15.10;6.82;;;18.30;99.90;;;;;;5009584;28;20037;-82
2023/08/03 09:32:51;;;;;;;14.13;6.22;;;18.40;99.90;;;;;;4992033;28;20079;-82
2023/08/03 09:35:28;;;;;;;12.52;5.72;;;18.50;99.90;;;;;;5010091;28;20037;-81
2023/08/03 09:37:59;;;;;;;13.93;5.47;;;18.60;99.90;;;;;;5010462;28;20033;-83
2023/08/03 09:40:25;;;;;;;11.55;5.03;;;18.60;99.90;;;;;;5025391;28;20037;-82
2023/08/03 09:42:52;;;;;;;14.70;5.68;;;18.70;99.90;;;;;;4990633;28;20233;-82
2023/08/03 09:45:17;;;;;;;14.07;5.43;;;18.60;99.90;;;;;;4995980;28;20464;-83
2023/08/03 09:47:43;;;;;;;14.40;4.25;;;18.70;99.90;;;;;;5009612;28;20113;-82
2023/08/03 09:50:09;;;;;;;11.95;3.83;;;18.80;99.90;;;;;;5015711;28;20039;-83
2023/08/03 09:52:49;;;;;;;8.40;3.63;;;18.80;99.90;;;;;;5015200;28;20101;-83
2023/08/03 09:55:20;;;;;;;8.73;3.42;;;18.90;99.90;;;;;;4997186;28;20030;-83
2023/08/03 09:58:12;;;;;;;13.73;3.58;;;19.00;99.90;;;;;;4996790;28;20034;-82
2023/08/03 10:00:38;;;;;;;6.78;2.60;;;19.20;99.90;;;;;;5013487;28;20054;-83
2023/08/03 10:03:09;;;;;;;7.22;2.90;;;19.40;99.90;;;;;;5015141;28;20022;-84
2023/08/03 10:05:40;;;;;;;12.63;3.00;;;19.50;99.90;;;;;;5015246;28;20097;-83
2023/08/03 10:08:09;;;;;;;7.57;1.88;;;19.50;99.90;;;;;;5015095;28;20049;-84
2023/08/03 10:10:38;;;;;;;7.03;1.95;;;19.50;99.90;;;;;;4977928;28;20112;-83
2023/08/03 10:13:07;;;;;;;7.55;2.15;;;19.50;99.90;;;;;;4995376;28;20030;-82
2023/08/03 10:15:33;;;;;;;6.07;1.80;;;19.60;99.90;;;;;;4994220;28;20027;-83
2023/08/03 10:18:00;;;;;;;4.40;1.50;;;19.60;99.90;;;;;;4994094;28;20034;-82
2023/08/03 10:20:26;;;;;;;5.40;1.55;;;19.70;99.90;;;;;;4994173;28;20026;-82
2023/08/03 10:23:11;;;;;;;4.38;1.38;;;19.70;99.90;;;;;;4995752;28;20038;-82
2023/08/03 10:26:00;;;;;;;4.95;1.27;;;19.80;99.90;;;;;;4993578;28;20034;-83
2023/08/03 10:28:27;;;;;;;8.93;1.88;;;19.80;99.90;;;;;;4993815;28;20049;-83
2023/08/03 10:31:06;;;;;;;10.80;2.15;;;19.90;99.90;;;;;;4995245;28;20037;-82
2023/08/03 10:33:50;;;;;;;8.65;1.92;;;20.00;99.90;;;;;;4995009;28;20036;-83
2023/08/03 10:36:28;;;;;;;5.63;1.27;;;20.20;99.90;;;;;;4995125;28;20069;-83
2023/08/03 10:39:00;;;;;;;5.93;1.05;;;20.50;99.90;;;;;;4994524;28;20053;-82
2023/08/03 10:41:36;;;;;;;2.25;0.70;;;20.40;99.90;;;;;;4994456;28;20026;-83
2023/08/03 10:44:09;;;;;;;2.78;0.77;;;20.10;99.90;;;;;;5012710;28;20049;-83
2023/08/03 10:46:40;;;;;;;2.95;0.77;;;19.90;99.90;;;;;;5013035;28;20029;-83
2023/08/03 10:49:17;;;;;;;6.00;1.33;;;19.60;99.90;;;;;;5014072;28;20017;-81
2023/08/03 10:51:44;;;;;;;5.35;1.00;;;19.30;99.90;;;;;;5011857;28;20037;-83
2023/08/03 10:54:09;;;;;;;3.47;1.00;;;19.10;99.90;;;;;;5012955;28;20512;-83
2023/08/03 10:56:35;;;;;;;2.28;0.75;;;19.00;99.90;;;;;;4996312;28;20046;-83
2023/08/03 10:59:03;;;;;;;3.17;0.95;;;18.80;99.90;;;;;;5012447;28;20041;-83
2023/08/03 11:01:28;;;;;;;4.88;1.00;;;18.90;99.90;;;;;;5013903;28;20073;-82
2023/08/03 11:03:54;;;;;;;3.75;1.10;;;18.90;99.90;;;;;;4996448;28;20378;-83
2023/08/03 11:06:20;;;;;;;2.65;0.85;;;18.90;99.90;;;;;;4996655;28;20030;-83
2023/08/03 11:08:47;;;;;;;2.65;1.00;;;18.90;99.90;;;;;;5012504;28;20550;-82
2023/08/03 11:11:14;;;;;;;2.97;1.00;;;18.90;99.90;;;;;;5029798;28;20085;-83
2023/08/03 11:13:44;;;;;;;2.90;1.00;;;18.90;99.90;;;;;;5016195;28;20087;-83
2023/08/03 11:16:18;;;;;;;2.67;0.77;;;19.00;99.90;;;;;;5015571;28;20436;-83
2023/08/03 11:18:48;;;;;;;4.15;0.82;;;19.50;99.90;;;;;;5015582;28;20099;-83
2023/08/03 11:21:14;;;;;;;4.55;1.00;;;19.90;99.90;;;;;;5033127;28;20386;-83
2023/08/03 11:23:40;;;;;;;3.35;1.10;;;20.00;99.90;;;;;;5015699;28;20033;-83
2023/08/03 11:26:08;;;;;;;3.70;1.10;;;20.00;99.90;;;;;;5015437;28;20022;-83
2023/08/03 11:28:44;;;;;;;6.03;1.50;;;19.80;99.90;;;;;;5015238;28;20458;-83
2023/08/03 11:31:20;;;;;;;4.38;1.33;;;19.70;99.90;;;;;;5032898;28;20023;-83
2023/08/03 11:33:54;;;;;;;6.85;1.75;;;19.60;99.90;;;;;;5015554;28;20025;-84
2023/08/03 11:36:21;;;;;;;4.72;1.35;;;19.40;99.90;;;;;;5015671;28;20091;-84
2023/08/03 11:38:48;;;;;;;5.38;1.33;;;19.40;99.90;;;;;;5015447;28;20057;-83
2023/08/03 11:41:16;;;;;;;4.43;1.08;;;19.30;99.90;;;;;;4998670;28;20029;-83
2023/08/03 11:43:42;;;;;;;4.32;1.10;;;19.30;99.90;;;;;;5034332;28;20034;-84
2023/08/03 11:46:08;;;;;;;3.88;1.17;;;19.20;99.90;;;;;;4984041;28;20076;-84
2023/08/03 11:48:33;;;;;;;2.67;1.20;;;19.20;99.90;;;;;;5034080;28;20108;-83
2023/08/03 11:50:59;;;;;;;8.60;2.10;;;19.10;99.90;;;;;;5034342;28;20036;-83
2023/08/03 11:53:26;;;;;;;4.80;1.08;;;19.10;99.90;;;;;;5016622;28;20375;-83
2023/08/03 11:55:52;;;;;;;5.30;1.42;;;19.00;99.90;;;;;;5034175;28;20083;-82
2023/08/03 11:58:25;;;;;;;7.63;1.30;;;19.00;99.90;;;;;;4999842;28;20024;-82
2023/08/03 12:00:57;;;;;;;4.72;0.88;;;18.90;99.90;;;;;;5015968;28;20030;-83
2023/08/03 12:03:34;;;;;;;4.80;1.35;;;18.80;99.90;;;;;;5000450;28;20029;-83
2023/08/03 12:06:05;;;;;;;5.38;1.20;;;18.90;99.90;;;;;;5019398;28;20443;-84
2023/08/03 12:08:41;;;;;;;10.10;1.75;;;18.90;99.90;;;;;;5019271;28;20030;-83
2023/08/03 12:11:06;;;;;;;5.60;1.00;;;18.80;99.90;;;;;;5036545;28;20111;-83
2023/08/03 12:13:32;;;;;;;3.22;0.90;;;18.80;99.90;;;;;;5019367;28;20401;-83
2023/08/03 12:15:58;;;;;;;1.95;0.75;;;18.70;99.90;;;;;;5019505;28;20033;-84
2023/08/03 12:18:24;;;;;;;4.05;1.08;;;18.70;99.90;;;;;;5019632;28;20363;-84
2023/08/03 12:20:53;;;;;;;6.18;1.27;;;18.70;99.90;;;;;;5007274;28;20477;-84
2023/08/03 12:23:20;;;;;;;3.72;0.70;;;19.00;99.90;;;;;;5024373;28;20017;-84
2023/08/03 12:25:46;;;;;;;4.07;0.90;;;19.60;99.90;;;;;;5003184;28;20099;-84
2023/08/03 12:28:12;;;;;;;4.35;0.63;;;20.30;99.90;;;;;;5002752;28;20366;-84
2023/08/03 12:30:38;;;;;;;3.92;0.80;;;20.70;99.90;;;;;;5019172;28;20025;-84
2023/08/03 12:33:06;;;;;;;3.83;0.60;;;20.90;99.90;;;;;;5035452;28;20449;-84
2023/08/03 12:35:32;;;;;;;3.25;0.60;;;21.30;99.90;;;;;;5017874;28;20044;-85
2023/08/03 12:37:58;;;;;;;3.67;0.50;;;21.30;99.90;;;;;;5034709;28;20071;-83
2023/08/03 12:40:24;;;;;;;3.10;0.60;;;21.10;99.90;;;;;;5016816;28;20025;-84